»·PEaware :: N987GW KASE-KTEX

N987GW :: KASE-KTEX

FLIGHT INFORMATION

Flight Status: Arrived
Operator: Privately registered:
United States
More flights under this callsign
Pilot: Ian G. (41107)
Aircraft: SOCATA TBM-850
(TBM8)
More flights by this aircraft type
Origin: KASE Aspen-Pitkin Co/Sardy
United States
Destination: KTEX Telluride Regl
United States
More flights between these airports :: More routes between these airports
Route: LINDZ9 LINDZ SLOLM MTJ ETL
File this flight plan on PilotEdge
Remarks: RMK / SIMBRIEF
Altitude:
(Current/Filed)
22,000ft
Speed:
(Current/Filed)
319kts
Departed: 07-Oct-23 08:23 AM
Arrived: 07-Oct-23 08:56 AM
Distance/Time
Traveled:
90nm/0:32
Distance/Time
To Go:
Arrived

Flight Plot

Page will automatically refresh every two minutes.

Flight plan parsing failed; only flown route is shown


Map Options




Map Legend


Flown Route
Filed Route
Departure Airport
Arrival Airport
Navaid (VOR, NDB)
Fix

Horizontal Profiles

Position Reports

Time Latitude Longitude Heading Altitude Ground
Speed
07-Oct-23 08:07 39.223550 -106.867362 74 7753ft 0kts
07-Oct-23 08:08 39.223550 -106.867362 74 7753ft 0kts
07-Oct-23 08:08 39.223550 -106.867362 74 7753ft 0kts
07-Oct-23 08:10 39.223550 -106.867362 74 7753ft 0kts
07-Oct-23 08:11 39.223550 -106.867362 74 7753ft 0kts
07-Oct-23 08:12 39.223550 -106.867362 74 7753ft 0kts
07-Oct-23 08:13 39.223550 -106.867362 74 7753ft 0kts
07-Oct-23 08:13 39.223550 -106.867362 74 7753ft 0kts
07-Oct-23 08:14 39.223550 -106.867362 74 7753ft 0kts
07-Oct-23 08:15 39.223551 -106.867357 69 7753ft 0kts
07-Oct-23 08:17 39.221705 -106.866920 159 7766ft 12kts
07-Oct-23 08:18 39.218545 -106.865450 157 7792ft 11kts
07-Oct-23 08:18 39.214825 -106.863671 159 7820ft 20kts
07-Oct-23 08:19 39.212128 -106.862552 195 7841ft 0kts
07-Oct-23 08:20 39.212128 -106.862552 195 7841ft 0kts
07-Oct-23 08:21 39.212128 -106.862552 195 7841ft 0kts
07-Oct-23 08:22 39.214363 -106.864648 339 7825ft 63kts
07-Oct-23 08:23 39.246991 -106.875056 351 8838ft 142kts
07-Oct-23 08:24 39.270515 -106.912794 282 10514ft 162kts
07-Oct-23 08:25 39.279529 -106.969451 282 12758ft 161kts
07-Oct-23 08:26 39.290915 -107.024692 318 14897ft 163kts
07-Oct-23 08:27 39.324472 -107.065466 311 16833ft 169kts
07-Oct-23 08:28 39.356547 -107.111715 312 18838ft 176kts
07-Oct-23 08:29 39.389669 -107.159264 312 20674ft 180kts
07-Oct-23 08:30 39.380223 -107.215914 240 22334ft 210kts
07-Oct-23 08:31 39.361503 -107.300092 258 22315ft 271kts
07-Oct-23 08:32 39.342123 -107.398581 258 22332ft 289kts
07-Oct-23 08:33 39.322146 -107.500274 258 22343ft 295kts
07-Oct-23 08:34 39.300778 -107.602940 246 22339ft 299kts
07-Oct-23 08:35 39.228045 -107.650888 198 22329ft 307kts
07-Oct-23 08:36 39.145310 -107.680370 197 22292ft 308kts
07-Oct-23 08:37 39.062712 -107.709023 197 22283ft 308kts
07-Oct-23 08:38 38.980172 -107.737510 197 22297ft 306kts
07-Oct-23 08:39 38.898008 -107.765779 196 22326ft 306kts
07-Oct-23 08:40 38.815598 -107.794057 196 22341ft 306kts
07-Oct-23 08:41 38.733410 -107.822187 196 22318ft 306kts
07-Oct-23 08:42 38.647915 -107.851454 196 21350ft 323kts
07-Oct-23 08:43 38.561387 -107.881551 196 20387ft 322kts
07-Oct-23 08:44 38.479466 -107.921985 215 19468ft 316kts
07-Oct-23 08:45 38.403999 -107.979159 213 18453ft 315kts
07-Oct-23 08:46 38.328540 -108.037448 213 16874ft 316kts
07-Oct-23 08:47 38.254057 -108.094916 213 15381ft 311kts
07-Oct-23 08:48 38.181079 -108.150958 213 13934ft 301kts
07-Oct-23 08:49 38.110412 -108.205884 210 12410ft 296kts
07-Oct-23 08:50 38.035934 -108.224294 155 11721ft 277kts
07-Oct-23 08:51 37.993459 -108.151858 102 11727ft 255kts
07-Oct-23 08:52 37.980600 -108.065285 102 11242ft 232kts
07-Oct-23 08:53 37.968731 -107.991891 101 10650ft 186kts
07-Oct-23 08:54 37.959143 -107.933969 105 9383ft 135kts
07-Oct-23 08:55 37.952478 -107.902462 105 9007ft 17kts
07-Oct-23 08:56 37.953783 -107.903011 307 9024ft 7kts
07-Oct-23 08:57 37.954180 -107.902847 108 9025ft 0kts
07-Oct-23 08:58 37.954180 -107.902847 108 9025ft 0kts

Navigation Log

Ident Type
Flight plan parsing failed, navigation log unavailable